sensor_id;sensor_type;location;lat;lon;timestamp;pressure;altitude;pressure_sealevel;temperature;humidity
49973;BME280;35865;49.798;10.968;2022-08-19T00:00:48;97565.22;;;19.89;100.00
49973;BME280;35865;49.798;10.968;2022-08-19T00:03:17;97576.03;;;19.81;100.00
49973;BME280;35865;49.798;10.968;2022-08-19T00:05:43;97565.72;;;19.83;100.00
49973;BME280;35865;49.798;10.968;2022-08-19T00:08:10;97561.91;;;19.84;100.00
49973;BME280;35865;49.798;10.968;2022-08-19T00:10:36;97562.41;;;19.86;100.00
49973;BME280;35865;49.798;10.968;2022-08-19T00:13:03;97564.16;;;19.82;100.00
49973;BME280;35865;49.798;10.968;2022-08-19T00:15:30;97558.56;;;19.87;100.00
49973;BME280;35865;49.798;10.968;2022-08-19T00:17:56;97560.16;;;19.88;100.00
49973;BME280;35865;49.798;10.968;2022-08-19T00:20:24;97563.03;;;19.83;100.00
49973;BME280;35865;49.798;10.968;2022-08-19T00:22:50;97554.00;;;19.78;100.00
49973;BME280;35865;49.798;10.968;2022-08-19T00:25:17;97572.69;;;19.84;100.00
49973;BME280;35865;49.798;10.968;2022-08-19T00:27:44;97571.72;;;19.88;100.00
49973;BME280;35865;49.798;10.968;2022-08-19T00:30:11;97568.88;;;19.85;100.00
49973;BME280;35865;49.798;10.968;2022-08-19T00:32:38;97556.09;;;19.82;100.00
49973;BME280;35865;49.798;10.968;2022-08-19T00:35:06;97543.41;;;19.82;100.00
49973;BME280;35865;49.798;10.968;2022-08-19T00:37:33;97545.50;;;19.76;100.00
49973;BME280;35865;49.798;10.968;2022-08-19T00:40:01;97551.03;;;19.71;100.00
49973;BME280;35865;49.798;10.968;2022-08-19T00:42:29;97556.91;;;19.73;100.00
49973;BME280;35865;49.798;10.968;2022-08-19T00:44:56;97552.31;;;19.74;100.00
49973;BME280;35865;49.798;10.968;2022-08-19T00:47:22;97553.44;;;19.64;100.00
49973;BME280;35865;49.798;10.968;2022-08-19T00:49:53;97549.34;;;19.58;100.00
49973;BME280;35865;49.798;10.968;2022-08-19T00:52:23;97546.53;;;19.54;100.00
49973;BME280;35865;49.798;10.968;2022-08-19T00:54:52;97546.53;;;19.45;100.00
49973;BME280;35865;49.798;10.968;2022-08-19T00:57:26;97551.28;;;19.40;100.00
49973;BME280;35865;49.798;10.968;2022-08-19T00:59:55;97548.13;;;19.38;100.00
49973;BME280;35865;49.798;10.968;2022-08-19T01:02:23;97550.66;;;19.34;100.00
49973;BME280;35865;49.798;10.968;2022-08-19T01:04:50;97554.47;;;19.33;100.00
49973;BME280;35865;49.798;10.968;2022-08-19T01:07:17;97561.25;;;19.31;100.00
49973;BME280;35865;49.798;10.968;2022-08-19T01:09:44;97562.53;;;19.33;100.00
49973;BME280;35865;49.798;10.968;2022-08-19T01:12:12;97569.16;;;19.36;100.00
49973;BME280;35865;49.798;10.968;2022-08-19T01:14:39;97558.09;;;19.37;100.00
49973;BME280;35865;49.798;10.968;2022-08-19T01:17:07;97562.34;;;19.47;100.00
49973;BME280;35865;49.798;10.968;2022-08-19T01:19:37;97561.72;;;19.50;100.00
49973;BME280;35865;49.798;10.968;2022-08-19T01:22:10;97567.72;;;19.56;100.00
49973;BME280;35865;49.798;10.968;2022-08-19T01:24:39;97571.19;;;19.56;100.00
49973;BME280;35865;49.798;10.968;2022-08-19T01:27:07;97570.84;;;19.58;100.00
49973;BME280;35865;49.798;10.968;2022-08-19T01:29:37;97563.91;;;19.57;100.00
49973;BME280;35865;49.798;10.968;2022-08-19T01:32:04;97568.97;;;19.58;100.00
49973;BME280;35865;49.798;10.968;2022-08-19T01:34:31;97578.13;;;19.66;100.00
49973;BME280;35865;49.798;10.968;2022-08-19T01:36:59;97587.94;;;19.62;100.00
49973;BME280;35865;49.798;10.968;2022-08-19T01:39:27;97595.84;;;19.67;100.00
49973;BME280;35865;49.798;10.968;2022-08-19T01:41:55;97609.44;;;19.71;100.00
49973;BME280;35865;49.798;10.968;2022-08-19T01:44:22;97607.09;;;19.69;100.00
49973;BME280;35865;49.798;10.968;2022-08-19T01:46:50;97602.78;;;19.77;100.00
49973;BME280;35865;49.798;10.968;2022-08-19T01:49:19;97596.63;;;19.76;100.00
49973;BME280;35865;49.798;10.968;2022-08-19T01:51:46;97599.97;;;19.73;100.00
49973;BME280;35865;49.798;10.968;2022-08-19T01:54:16;97605.81;;;19.67;100.00
49973;BME280;35865;49.798;10.968;2022-08-19T01:56:42;97610.22;;;19.71;100.00
49973;BME280;35865;49.798;10.968;2022-08-19T01:59:14;97608.50;;;19.67;100.00
49973;BME280;35865;49.798;10.968;2022-08-19T02:01:42;97595.84;;;19.67;100.00
49973;BME280;35865;49.798;10.968;2022-08-19T02:04:09;97607.38;;;19.68;100.00
49973;BME280;35865;49.798;10.968;2022-08-19T02:06:36;97620.69;;;19.64;100.00
49973;BME280;35865;49.798;10.968;2022-08-19T02:09:04;97623.72;;;19.63;100.00
49973;BME280;35865;49.798;10.968;2022-08-19T02:11:33;97629.56;;;19.65;100.00
49973;BME280;35865;49.798;10.968;2022-08-19T02:14:01;97632.88;;;19.61;100.00
49973;BME280;35865;49.798;10.968;2022-08-19T02:16:29;97628.94;;;19.59;100.00
49973;BME280;35865;49.798;10.968;2022-08-19T02:18:56;97623.84;;;19.66;100.00
49973;BME280;35865;49.798;10.968;2022-08-19T02:21:26;97617.84;;;19.60;100.00
49973;BME280;35865;49.798;10.968;2022-08-19T02:23:52;97617.72;;;19.57;100.00
49973;BME280;35865;49.798;10.968;2022-08-19T02:26:20;97612.47;;;19.60;100.00
49973;BME280;35865;49.798;10.968;2022-08-19T02:28:46;97617.03;;;19.69;100.00
49973;BME280;35865;49.798;10.968;2022-08-19T02:31:15;97631.63;;;19.59;100.00
49973;BME280;35865;49.798;10.968;2022-08-19T02:33:43;97639.53;;;19.64;100.00
49973;BME280;35865;49.798;10.968;2022-08-19T02:36:11;97647.94;;;19.63;100.00
49973;BME280;35865;49.798;10.968;2022-08-19T02:38:38;97655.69;;;19.64;100.00
49973;BME280;35865;49.798;10.968;2022-08-19T02:41:07;97663.91;;;19.59;100.00
49973;BME280;35865;49.798;10.968;2022-08-19T02:43:35;97661.69;;;19.61;100.00
49973;BME280;35865;49.798;10.968;2022-08-19T02:46:10;97665.63;;;19.64;100.00
49973;BME280;35865;49.798;10.968;2022-08-19T02:48:37;97660.41;;;19.67;100.00
49973;BME280;35865;49.798;10.968;2022-08-19T02:51:05;97662.94;;;19.72;100.00
49973;BME280;35865;49.798;10.968;2022-08-19T02:53:31;97668.44;;;19.76;100.00
49973;BME280;35865;49.798;10.968;2022-08-19T02:55:58;97666.91;;;19.75;100.00
49973;BME280;35865;49.798;10.968;2022-08-19T02:58:24;97674.47;;;19.73;100.00
49973;BME280;35865;49.798;10.968;2022-08-19T03:00:53;97682.56;;;19.82;100.00
49973;BME280;35865;49.798;10.968;2022-08-19T03:03:20;97690.75;;;19.85;100.00
49973;BME280;35865;49.798;10.968;2022-08-19T03:05:46;97687.63;;;19.83;100.00
49973;BME280;35865;49.798;10.968;2022-08-19T03:08:15;97682.56;;;19.82;100.00
49973;BME280;35865;49.798;10.968;2022-08-19T03:10:43;97677.63;;;19.84;100.00
49973;BME280;35865;49.798;10.968;2022-08-19T03:13:11;97668.91;;;19.87;100.00
49973;BME280;35865;49.798;10.968;2022-08-19T03:15:40;97674.16;;;19.83;100.00
49973;BME280;35865;49.798;10.968;2022-08-19T03:18:07;97685.88;;;19.87;100.00
49973;BME280;35865;49.798;10.968;2022-08-19T03:20:40;97681.13;;;19.84;100.00
49973;BME280;35865;49.798;10.968;2022-08-19T03:23:06;97681.91;;;19.85;100.00
49973;BME280;35865;49.798;10.968;2022-08-19T03:25:38;97672.56;;;19.82;100.00
49973;BME280;35865;49.798;10.968;2022-08-19T03:28:05;97667.03;;;19.78;100.00
49973;BME280;35865;49.798;10.968;2022-08-19T03:30:33;97659.75;;;19.88;100.00
49973;BME280;35865;49.798;10.968;2022-08-19T03:32:59;97645.50;;;19.78;100.00
49973;BME280;35865;49.798;10.968;2022-08-19T03:35:26;97655.50;;;19.78;100.00
49973;BME280;35865;49.798;10.968;2022-08-19T03:37:52;97649.31;;;19.77;100.00
49973;BME280;35865;49.798;10.968;2022-08-19T03:40:19;97645.38;;;19.75;100.00
49973;BME280;35865;49.798;10.968;2022-08-19T03:42:46;97637.75;;;19.77;100.00
49973;BME280;35865;49.798;10.968;2022-08-19T03:45:13;97632.84;;;19.79;100.00
49973;BME280;35865;49.798;10.968;2022-08-19T03:47:39;97633.19;;;19.77;100.00
49973;BME280;35865;49.798;10.968;2022-08-19T03:50:06;97636.81;;;19.82;100.00
49973;BME280;35865;49.798;10.968;2022-08-19T03:52:33;97636.50;;;19.83;100.00
49973;BME280;35865;49.798;10.968;2022-08-19T03:55:01;97624.13;;;19.82;100.00
49973;BME280;35865;49.798;10.968;2022-08-19T03:57:28;97617.31;;;19.85;100.00
49973;BME280;35865;49.798;10.968;2022-08-19T03:59:55;97629.22;;;19.92;100.00
49973;BME280;35865;49.798;10.968;2022-08-19T04:02:22;97634.41;;;19.89;100.00
49973;BME280;35865;49.798;10.968;2022-08-19T04:04:48;97638.38;;;19.83;100.00
49973;BME280;35865;49.798;10.968;2022-08-19T04:07:15;97631.72;;;19.80;100.00
49973;BME280;35865;49.798;10.968;2022-08-19T04:09:43;97628.25;;;19.79;100.00
49973;BME280;35865;49.798;10.968;2022-08-19T04:12:09;97625.28;;;19.72;100.00
49973;BME280;35865;49.798;10.968;2022-08-19T04:14:36;97618.47;;;19.66;100.00
49973;BME280;35865;49.798;10.968;2022-08-19T04:17:04;97617.19;;;19.64;100.00
49973;BME280;35865;49.798;10.968;2022-08-19T04:19:32;97623.38;;;19.64;100.00
49973;BME280;35865;49.798;10.968;2022-08-19T04:21:59;97618.66;;;19.61;100.00
49973;BME280;35865;49.798;10.968;2022-08-19T04:24:26;97620.84;;;19.59;100.00
49973;BME280;35865;49.798;10.968;2022-08-19T04:26:52;97619.13;;;19.54;100.00
49973;BME280;35865;49.798;10.968;2022-08-19T04:29:22;97632.25;;;19.56;100.00
49973;BME280;35865;49.798;10.968;2022-08-19T04:31:50;97635.41;;;19.58;100.00
49973;BME280;35865;49.798;10.968;2022-08-19T04:34:21;97638.72;;;19.64;100.00
49973;BME280;35865;49.798;10.968;2022-08-19T04:36:49;97647.59;;;19.64;100.00
49973;BME280;35865;49.798;10.968;2022-08-19T04:39:19;97654.09;;;19.63;100.00
49973;BME280;35865;49.798;10.968;2022-08-19T04:41:46;97652.03;;;19.60;100.00
49973;BME280;35865;49.798;10.968;2022-08-19T04:44:31;97655.19;;;19.62;100.00
49973;BME280;35865;49.798;10.968;2022-08-19T04:46:57;97658.03;;;19.66;100.00
49973;BME280;35865;49.798;10.968;2022-08-19T04:49:26;97658.81;;;19.66;100.00
49973;BME280;35865;49.798;10.968;2022-08-19T04:51:53;97657.41;;;19.69;100.00
49973;BME280;35865;49.798;10.968;2022-08-19T04:54:21;97660.25;;;19.72;100.00
49973;BME280;35865;49.798;10.968;2022-08-19T04:56:48;97659.94;;;19.74;100.00
49973;BME280;35865;49.798;10.968;2022-08-19T04:59:16;97676.22;;;19.77;100.00
49973;BME280;35865;49.798;10.968;2022-08-19T05:01:43;97685.09;;;19.78;100.00
49973;BME280;35865;49.798;10.968;2022-08-19T05:04:15;97701.41;;;19.82;100.00
49973;BME280;35865;49.798;10.968;2022-08-19T05:06:44;97698.38;;;19.83;100.00
49973;BME280;35865;49.798;10.968;2022-08-19T05:09:10;97707.72;;;19.86;100.00
49973;BME280;35865;49.798;10.968;2022-08-19T05:11:37;97713.56;;;19.88;100.00
49973;BME280;35865;49.798;10.968;2022-08-19T05:14:05;97712.91;;;19.91;100.00
49973;BME280;35865;49.798;10.968;2022-08-19T05:16:31;97718.16;;;19.87;100.00
49973;BME280;35865;49.798;10.968;2022-08-19T05:18:58;97721.00;;;19.91;100.00
49973;BME280;35865;49.798;10.968;2022-08-19T05:21:44;97726.09;;;19.92;100.00
49973;BME280;35865;49.798;10.968;2022-08-19T05:24:29;97735.91;;;19.97;100.00
49973;BME280;35865;49.798;10.968;2022-08-19T05:26:56;97746.53;;;20.02;100.00
49973;BME280;35865;49.798;10.968;2022-08-19T05:29:24;97740.00;;;20.03;100.00
49973;BME280;35865;49.798;10.968;2022-08-19T05:31:52;97736.22;;;20.04;100.00
49973;BME280;35865;49.798;10.968;2022-08-19T05:34:21;97737.16;;;20.08;100.00
49973;BME280;35865;49.798;10.968;2022-08-19T05:36:52;97743.97;;;20.15;100.00
49973;BME280;35865;49.798;10.968;2022-08-19T05:39:23;97751.88;;;20.11;100.00
49973;BME280;35865;49.798;10.968;2022-08-19T05:41:52;97753.47;;;20.12;100.00
49973;BME280;35865;49.798;10.968;2022-08-19T05:44:19;97759.19;;;20.10;100.00
49973;BME280;35865;49.798;10.968;2022-08-19T05:46:47;97766.59;;;20.14;100.00
49973;BME280;35865;49.798;10.968;2022-08-19T05:49:15;97763.44;;;20.11;100.00
49973;BME280;35865;49.798;10.968;2022-08-19T05:51:42;97768.69;;;20.08;100.00
49973;BME280;35865;49.798;10.968;2022-08-19T05:54:11;97764.88;;;20.09;100.00
49973;BME280;35865;49.798;10.968;2022-08-19T05:56:39;97771.38;;;20.08;100.00
49973;BME280;35865;49.798;10.968;2022-08-19T05:59:06;97767.09;;;20.07;100.00
49973;BME280;35865;49.798;10.968;2022-08-19T06:01:36;97774.38;;;20.06;100.00
49973;BME280;35865;49.798;10.968;2022-08-19T06:04:03;97768.34;;;20.09;100.00
49973;BME280;35865;49.798;10.968;2022-08-19T06:06:30;97755.06;;;20.04;100.00
49973;BME280;35865;49.798;10.968;2022-08-19T06:08:59;97759.66;;;20.04;100.00
49973;BME280;35865;49.798;10.968;2022-08-19T06:11:34;97767.09;;;20.07;100.00
49973;BME280;35865;49.798;10.968;2022-08-19T06:14:03;97778.16;;;20.14;100.00
49973;BME280;35865;49.798;10.968;2022-08-19T06:16:30;97775.31;;;20.19;100.00
49973;BME280;35865;49.798;10.968;2022-08-19T06:19:02;97770.06;;;20.32;100.00
49973;BME280;35865;49.798;10.968;2022-08-19T06:21:32;97764.50;;;20.37;100.00
49973;BME280;35865;49.798;10.968;2022-08-19T06:23:59;97768.09;;;20.50;100.00
49973;BME280;35865;49.798;10.968;2022-08-19T06:26:26;97767.28;;;20.58;100.00
49973;BME280;35865;49.798;10.968;2022-08-19T06:28:54;97764.25;;;20.59;100.00
49973;BME280;35865;49.798;10.968;2022-08-19T06:31:23;97772.31;;;20.68;100.00
49973;BME280;35865;49.798;10.968;2022-08-19T06:33:50;97776.13;;;20.67;100.00
49973;BME280;35865;49.798;10.968;2022-08-19T06:36:18;97776.44;;;20.66;100.00
49973;BME280;35865;49.798;10.968;2022-08-19T06:38:45;97772.16;;;20.65;100.00
49973;BME280;35865;49.798;10.968;2022-08-19T06:41:11;97769.66;;;20.59;100.00
49973;BME280;35865;49.798;10.968;2022-08-19T06:43:38;97771.41;;;20.64;100.00
49973;BME280;35865;49.798;10.968;2022-08-19T06:46:11;97767.44;;;20.61;100.00
49973;BME280;35865;49.798;10.968;2022-08-19T06:48:39;97765.72;;;20.57;100.00
49973;BME280;35865;49.798;10.968;2022-08-19T06:51:06;97763.91;;;20.70;100.00
49973;BME280;35865;49.798;10.968;2022-08-19T06:53:32;97758.69;;;20.73;100.00
49973;BME280;35865;49.798;10.968;2022-08-19T06:56:00;97773.72;;;20.74;100.00
49973;BME280;35865;49.798;10.968;2022-08-19T06:58:27;97777.06;;;20.71;100.00
49973;BME280;35865;49.798;10.968;2022-08-19T07:00:57;97775.69;;;20.65;100.00
49973;BME280;35865;49.798;10.968;2022-08-19T07:03:29;97783.56;;;20.70;100.00
49973;BME280;35865;49.798;10.968;2022-08-19T07:05:56;97794.66;;;20.69;100.00
49973;BME280;35865;49.798;10.968;2022-08-19T07:08:22;97786.25;;;20.70;100.00
49973;BME280;35865;49.798;10.968;2022-08-19T07:10:52;97785.16;;;20.71;100.00
49973;BME280;35865;49.798;10.968;2022-08-19T07:13:20;97779.47;;;20.64;100.00
49973;BME280;35865;49.798;10.968;2022-08-19T07:15:46;97787.06;;;20.62;100.00
49973;BME280;35865;49.798;10.968;2022-08-19T07:18:14;97784.88;;;20.55;100.00
49973;BME280;35865;49.798;10.968;2022-08-19T07:20:42;97795.47;;;20.69;100.00
49973;BME280;35865;49.798;10.968;2022-08-19T07:23:09;97792.56;;;20.74;100.00
49973;BME280;35865;49.798;10.968;2022-08-19T07:25:36;97798.91;;;20.78;100.00
49973;BME280;35865;49.798;10.968;2022-08-19T07:28:03;97811.13;;;20.76;100.00
49973;BME280;35865;49.798;10.968;2022-08-19T07:30:30;97818.25;;;20.80;100.00
49973;BME280;35865;49.798;10.968;2022-08-19T07:32:57;97810.63;;;20.83;100.00
49973;BME280;35865;49.798;10.968;2022-08-19T07:35:23;97808.41;;;20.93;100.00
49973;BME280;35865;49.798;10.968;2022-08-19T07:37:51;97801.22;;;21.06;100.00
49973;BME280;35865;49.798;10.968;2022-08-19T07:40:18;97810.53;;;21.09;100.00
49973;BME280;35865;49.798;10.968;2022-08-19T07:42:44;97815.06;;;21.26;100.00
49973;BME280;35865;49.798;10.968;2022-08-19T07:45:10;97812.53;;;21.29;100.00
49973;BME280;35865;49.798;10.968;2022-08-19T07:47:37;97815.81;;;21.35;100.00
49973;BME280;35865;49.798;10.968;2022-08-19T07:50:07;97823.00;;;21.31;100.00
49973;BME280;35865;49.798;10.968;2022-08-19T07:52:33;97809.94;;;21.33;100.00
49973;BME280;35865;49.798;10.968;2022-08-19T07:55:03;97813.66;;;21.50;100.00
49973;BME280;35865;49.798;10.968;2022-08-19T07:57:29;97820.53;;;21.68;100.00
49973;BME280;35865;49.798;10.968;2022-08-19T07:59:56;97820.06;;;21.66;100.00
49973;BME280;35865;49.798;10.968;2022-08-19T08:02:22;97829.19;;;21.83;100.00
49973;BME280;35865;49.798;10.968;2022-08-19T08:04:48;97833.00;;;22.03;100.00
49973;BME280;35865;49.798;10.968;2022-08-19T08:07:33;97830.09;;;22.41;100.00
49973;BME280;35865;49.798;10.968;2022-08-19T08:10:18;97823.69;;;22.79;100.00
49973;BME280;35865;49.798;10.968;2022-08-19T08:12:45;97820.31;;;22.95;100.00
49973;BME280;35865;49.798;10.968;2022-08-19T08:15:15;97828.91;;;23.34;100.00
49973;BME280;35865;49.798;10.968;2022-08-19T08:17:43;97814.72;;;23.25;100.00
49973;BME280;35865;49.798;10.968;2022-08-19T08:20:11;97804.59;;;23.75;100.00
49973;BME280;35865;49.798;10.968;2022-08-19T08:22:43;97808.28;;;23.95;100.00
49973;BME280;35865;49.798;10.968;2022-08-19T08:25:28;97809.56;;;24.42;100.00
49973;BME280;35865;49.798;10.968;2022-08-19T08:27:56;97804.63;;;24.60;96.68
49973;BME280;35865;49.798;10.968;2022-08-19T08:30:26;97801.94;;;24.92;93.76
49973;BME280;35865;49.798;10.968;2022-08-19T08:32:53;97795.53;;;25.00;91.25
49973;BME280;35865;49.798;10.968;2022-08-19T08:35:21;97788.84;;;25.45;89.59
49973;BME280;35865;49.798;10.968;2022-08-19T08:37:50;97785.50;;;25.72;86.07
49973;BME280;35865;49.798;10.968;2022-08-19T08:40:20;97781.56;;;25.69;83.61
49973;BME280;35865;49.798;10.968;2022-08-19T08:42:54;97778.06;;;25.68;84.49
49973;BME280;35865;49.798;10.968;2022-08-19T08:45:24;97782.41;;;25.54;83.71
49973;BME280;35865;49.798;10.968;2022-08-19T08:47:52;97781.91;;;25.48;83.23
49973;BME280;35865;49.798;10.968;2022-08-19T08:50:25;97781.34;;;25.23;82.16
49973;BME280;35865;49.798;10.968;2022-08-19T08:52:56;97774.69;;;25.04;82.96
49973;BME280;35865;49.798;10.968;2022-08-19T08:55:25;97778.66;;;24.91;82.99
49973;BME280;35865;49.798;10.968;2022-08-19T08:57:59;97777.13;;;25.25;82.98
49973;BME280;35865;49.798;10.968;2022-08-19T09:00:28;97773.91;;;25.20;81.83
49973;BME280;35865;49.798;10.968;2022-08-19T09:02:57;97781.00;;;25.79;81.12
49973;BME280;35865;49.798;10.968;2022-08-19T09:05:30;97765.84;;;25.59;81.08
49973;BME280;35865;49.798;10.968;2022-08-19T09:08:06;97769.06;;;25.64;80.14
49973;BME280;35865;49.798;10.968;2022-08-19T09:10:37;97772.41;;;25.77;79.13
49973;BME280;35865;49.798;10.968;2022-08-19T09:13:11;97769.97;;;25.72;79.12
49973;BME280;35865;49.798;10.968;2022-08-19T09:15:46;97777.03;;;26.12;77.61
49973;BME280;35865;49.798;10.968;2022-08-19T09:18:14;97772.38;;;25.93;77.62
49973;BME280;35865;49.798;10.968;2022-08-19T09:20:42;97776.03;;;26.01;77.10
49973;BME280;35865;49.798;10.968;2022-08-19T09:23:09;97782.88;;;25.75;77.06
49973;BME280;35865;49.798;10.968;2022-08-19T09:25:36;97770.50;;;25.07;77.56
49973;BME280;35865;49.798;10.968;2022-08-19T09:28:06;97776.66;;;24.88;79.38
49973;BME280;35865;49.798;10.968;2022-08-19T09:30:38;97781.41;;;25.10;80.19
49973;BME280;35865;49.798;10.968;2022-08-19T09:33:06;97779.88;;;24.93;80.98
49973;BME280;35865;49.798;10.968;2022-08-19T09:35:33;97778.56;;;24.87;81.36
49973;BME280;35865;49.798;10.968;2022-08-19T09:38:00;97784.94;;;24.79;80.88
49973;BME280;35865;49.798;10.968;2022-08-19T09:40:27;97781.78;;;25.09;80.89
49973;BME280;35865;49.798;10.968;2022-08-19T09:42:54;97780.66;;;24.94;80.21
49973;BME280;35865;49.798;10.968;2022-08-19T09:45:24;97784.69;;;24.84;80.00
49973;BME280;35865;49.798;10.968;2022-08-19T09:47:51;97779.94;;;24.65;80.64
49973;BME280;35865;49.798;10.968;2022-08-19T09:50:19;97779.84;;;24.45;81.77
49973;BME280;35865;49.798;10.968;2022-08-19T09:52:46;97787.38;;;24.24;83.18
49973;BME280;35865;49.798;10.968;2022-08-19T09:55:12;97783.16;;;24.10;84.43
49973;BME280;35865;49.798;10.968;2022-08-19T09:57:41;97787.97;;;24.17;85.26
49973;BME280;35865;49.798;10.968;2022-08-19T10:00:09;97774.66;;;23.96;85.42
49973;BME280;35865;49.798;10.968;2022-08-19T10:02:37;97786.84;;;24.18;86.46
49973;BME280;35865;49.798;10.968;2022-08-19T10:05:04;97777.66;;;24.35;85.69
49973;BME280;35865;49.798;10.968;2022-08-19T10:07:48;97777.56;;;24.03;86.14
49973;BME280;35865;49.798;10.968;2022-08-19T10:10:15;97783.66;;;24.28;85.79
49973;BME280;35865;49.798;10.968;2022-08-19T10:12:41;97785.63;;;24.15;87.08
49973;BME280;35865;49.798;10.968;2022-08-19T10:15:13;97770.38;;;23.95;85.60
49973;BME280;35865;49.798;10.968;2022-08-19T10:17:41;97776.19;;;24.09;85.50
49973;BME280;35865;49.798;10.968;2022-08-19T10:20:08;97780.59;;;24.30;85.45
49973;BME280;35865;49.798;10.968;2022-08-19T10:22:35;97772.09;;;24.60;84.60
49973;BME280;35865;49.798;10.968;2022-08-19T10:25:04;97769.38;;;24.76;84.67
49973;BME280;35865;49.798;10.968;2022-08-19T10:27:31;97762.97;;;24.84;83.73
49973;BME280;35865;49.798;10.968;2022-08-19T10:29:58;97767.25;;;25.17;81.54
49973;BME280;35865;49.798;10.968;2022-08-19T10:32:24;97774.25;;;25.34;80.26
49973;BME280;35865;49.798;10.968;2022-08-19T10:34:52;97774.09;;;25.11;80.76
49973;BME280;35865;49.798;10.968;2022-08-19T10:37:19;97780.28;;;25.11;80.49
49973;BME280;35865;49.798;10.968;2022-08-19T10:39:46;97775.50;;;24.89;81.22
49973;BME280;35865;49.798;10.968;2022-08-19T10:42:13;97765.59;;;24.48;82.19
49973;BME280;35865;49.798;10.968;2022-08-19T10:44:41;97771.56;;;24.38;82.80
49973;BME280;35865;49.798;10.968;2022-08-19T10:47:08;97775.03;;;24.39;83.30
49973;BME280;35865;49.798;10.968;2022-08-19T10:49:35;97773.41;;;24.22;83.60
49973;BME280;35865;49.798;10.968;2022-08-19T10:52:22;97778.53;;;24.39;83.60
49973;BME280;35865;49.798;10.968;2022-08-19T10:55:00;97774.28;;;24.26;83.69
49973;BME280;35865;49.798;10.968;2022-08-19T10:57:45;97772.47;;;24.30;83.80
49973;BME280;35865;49.798;10.968;2022-08-19T11:00:12;97768.94;;;24.29;83.76
49973;BME280;35865;49.798;10.968;2022-08-19T11:02:39;97777.84;;;24.42;83.55
49973;BME280;35865;49.798;10.968;2022-08-19T11:05:06;97770.31;;;24.36;83.33
49973;BME280;35865;49.798;10.968;2022-08-19T11:07:36;97769.84;;;24.33;83.62
49973;BME280;35865;49.798;10.968;2022-08-19T11:10:03;97773.72;;;24.48;83.89
49973;BME280;35865;49.798;10.968;2022-08-19T11:12:30;97768.94;;;24.29;84.10
49973;BME280;35865;49.798;10.968;2022-08-19T11:14:58;97773.38;;;24.34;83.93
49973;BME280;35865;49.798;10.968;2022-08-19T11:17:24;97768.94;;;24.29;84.21
49973;BME280;35865;49.798;10.968;2022-08-19T11:19:50;97762.13;;;24.20;84.77
49973;BME280;35865;49.798;10.968;2022-08-19T11:22:17;97775.44;;;24.25;84.51
49973;BME280;35865;49.798;10.968;2022-08-19T11:24:45;97761.00;;;23.92;85.00
49973;BME280;35865;49.798;10.968;2022-08-19T11:27:11;97767.66;;;23.95;85.42
49973;BME280;35865;49.798;10.968;2022-08-19T11:29:39;97775.25;;;23.89;86.42
49973;BME280;35865;49.798;10.968;2022-08-19T11:32:08;97770.66;;;23.77;86.98
49973;BME280;35865;49.798;10.968;2022-08-19T11:34:36;97770.41;;;23.82;86.81
49973;BME280;35865;49.798;10.968;2022-08-19T11:37:04;97759.19;;;23.96;86.93
49973;BME280;35865;49.798;10.968;2022-08-19T11:39:33;97767.41;;;24.00;87.45
49973;BME280;35865;49.798;10.968;2022-08-19T11:42:05;97770.56;;;24.02;87.24
49973;BME280;35865;49.798;10.968;2022-08-19T11:44:52;97770.06;;;23.84;87.23
49973;BME280;35865;49.798;10.968;2022-08-19T11:47:19;97763.38;;;23.94;87.73
49973;BME280;35865;49.798;10.968;2022-08-19T11:49:46;97770.66;;;23.77;88.04
49973;BME280;35865;49.798;10.968;2022-08-19T11:52:12;97762.09;;;23.75;88.47
49973;BME280;35865;49.798;10.968;2022-08-19T11:54:39;97764.84;;;23.63;88.71
49973;BME280;35865;49.798;10.968;2022-08-19T11:57:07;97758.97;;;23.48;89.62
49973;BME280;35865;49.798;10.968;2022-08-19T11:59:33;97756.75;;;23.38;90.05
49973;BME280;35865;49.798;10.968;2022-08-19T12:02:00;97758.34;;;23.27;90.37
49973;BME280;35865;49.798;10.968;2022-08-19T12:04:27;97755.41;;;23.20;91.04
49973;BME280;35865;49.798;10.968;2022-08-19T12:06:54;97762.97;;;23.26;91.86
49973;BME280;35865;49.798;10.968;2022-08-19T12:09:20;97760.84;;;23.07;92.55
49973;BME280;35865;49.798;10.968;2022-08-19T12:11:48;97766.25;;;23.07;93.35
49973;BME280;35865;49.798;10.968;2022-08-19T12:14:17;97761.28;;;22.97;94.42
49973;BME280;35865;49.798;10.968;2022-08-19T12:16:46;97765.13;;;22.96;94.82
49973;BME280;35865;49.798;10.968;2022-08-19T12:19:13;97755.66;;;22.90;95.26
49973;BME280;35865;49.798;10.968;2022-08-19T12:21:40;97755.00;;;22.93;95.89
49973;BME280;35865;49.798;10.968;2022-08-19T12:24:07;97749.78;;;23.00;96.31
49973;BME280;35865;49.798;10.968;2022-08-19T12:26:34;97749.56;;;23.18;96.25
49973;BME280;35865;49.798;10.968;2022-08-19T12:29:02;97752.03;;;23.23;94.45
49973;BME280;35865;49.798;10.968;2022-08-19T12:31:30;97751.13;;;23.31;93.74
49973;BME280;35865;49.798;10.968;2022-08-19T12:33:57;97752.09;;;23.39;93.36
49973;BME280;35865;49.798;10.968;2022-08-19T12:36:24;97754.25;;;23.58;92.99
49973;BME280;35865;49.798;10.968;2022-08-19T12:38:51;97750.13;;;23.76;91.26
49973;BME280;35865;49.798;10.968;2022-08-19T12:41:18;97751.66;;;23.90;90.42
49973;BME280;35865;49.798;10.968;2022-08-19T12:43:47;97747.84;;;23.78;90.25
49973;BME280;35865;49.798;10.968;2022-08-19T12:46:14;97757.56;;;23.79;90.39
49973;BME280;35865;49.798;10.968;2022-08-19T12:48:42;97758.00;;;23.81;90.11